createdAt,value
2023-07-25T00:00:27.927Z,9.40
2023-07-25T00:02:54.659Z,11.63
2023-07-25T00:05:21.419Z,7.55
2023-07-25T00:07:48.046Z,9.13
2023-07-25T00:10:14.790Z,7.55
2023-07-25T00:12:41.452Z,9.60
2023-07-25T00:15:08.655Z,11.88
2023-07-25T00:17:35.285Z,8.15
2023-07-25T00:20:01.933Z,8.63
2023-07-25T00:22:28.566Z,11.23
2023-07-25T00:24:55.270Z,6.25
2023-07-25T00:27:21.984Z,10.50
2023-07-25T00:29:52.758Z,8.07
2023-07-25T00:32:19.392Z,7.45
2023-07-25T00:34:46.017Z,9.68
2023-07-25T00:37:12.639Z,7.43
2023-07-25T00:39:39.310Z,11.15
2023-07-25T00:42:06.665Z,6.18
2023-07-25T00:44:33.323Z,7.80
2023-07-25T00:46:59.976Z,12.85
2023-07-25T00:49:26.870Z,7.70
2023-07-25T00:51:53.614Z,7.05
2023-07-25T00:54:20.370Z,6.43
2023-07-25T00:56:47.005Z,7.93
2023-07-25T00:59:14.176Z,5.70
2023-07-25T01:01:40.891Z,7.50
2023-07-25T01:04:07.622Z,8.60
2023-07-25T01:06:34.615Z,7.60
2023-07-25T01:09:01.280Z,6.00
2023-07-25T01:11:29.189Z,8.43
2023-07-25T01:14:01.859Z,7.53
2023-07-25T01:16:29.725Z,5.82
2023-07-25T01:18:57.178Z,7.57
2023-07-25T01:21:24.216Z,7.25
2023-07-25T01:23:51.379Z,8.30
2023-07-25T01:26:18.405Z,7.15
2023-07-25T01:28:45.100Z,7.75
2023-07-25T01:31:11.756Z,7.65
2023-07-25T01:33:38.462Z,7.00
2023-07-25T01:36:05.496Z,9.27
2023-07-25T01:38:32.163Z,7.22
2023-07-25T01:40:58.784Z,7.13
2023-07-25T01:43:25.406Z,8.48
2023-07-25T01:45:52.054Z,6.93
2023-07-25T01:48:18.767Z,5.95
2023-07-25T01:50:45.394Z,7.90
2023-07-25T01:53:12.012Z,9.02
2023-07-25T01:55:38.635Z,6.40
2023-07-25T01:58:05.304Z,8.15
2023-07-25T02:00:31.933Z,7.70
2023-07-25T02:02:58.674Z,8.73
2023-07-25T02:05:25.348Z,9.25
2023-07-25T02:07:52.736Z,8.98
2023-07-25T02:10:19.357Z,9.27
2023-07-25T02:12:45.986Z,7.50
2023-07-25T02:15:12.688Z,10.20
2023-07-25T02:17:39.855Z,14.00
2023-07-25T02:20:07.364Z,8.48
2023-07-25T02:22:34.093Z,9.68
2023-07-25T02:25:00.733Z,11.30
2023-07-25T02:27:27.976Z,9.32
2023-07-25T02:29:54.629Z,8.60
2023-07-25T02:32:21.434Z,10.20
2023-07-25T02:34:48.181Z,10.48
2023-07-25T02:37:14.855Z,11.52
2023-07-25T02:39:41.505Z,14.80
2023-07-25T02:42:08.208Z,11.48
2023-07-25T02:44:34.852Z,13.05
2023-07-25T02:47:01.579Z,15.18
2023-07-25T02:49:28.236Z,15.32
2023-07-25T02:51:54.950Z,12.85
2023-07-25T02:54:21.620Z,13.35
2023-07-25T02:56:48.371Z,14.00
2023-07-25T02:59:15.075Z,18.33
2023-07-25T03:01:41.898Z,17.38
2023-07-25T03:04:08.649Z,13.10
2023-07-25T03:06:35.384Z,12.52
2023-07-25T03:09:02.049Z,19.13
2023-07-25T03:11:28.700Z,12.65
2023-07-25T03:13:55.359Z,15.48
2023-07-25T03:16:22.053Z,14.23
2023-07-25T03:18:48.761Z,11.93
2023-07-25T03:21:15.374Z,10.55
2023-07-25T03:23:42.012Z,13.52
2023-07-25T03:26:08.900Z,13.13
2023-07-25T03:28:35.595Z,12.20
2023-07-25T03:31:02.261Z,12.27
2023-07-25T03:33:28.928Z,9.50
2023-07-25T03:35:55.781Z,11.85
2023-07-25T03:38:22.498Z,11.55
2023-07-25T03:40:49.161Z,11.88
2023-07-25T03:43:15.834Z,11.27
2023-07-25T03:45:42.629Z,13.60
2023-07-25T03:48:10.291Z,10.88
2023-07-25T03:50:36.938Z,15.70
2023-07-25T03:53:05.933Z,12.18
2023-07-25T03:55:32.805Z,10.60
2023-07-25T03:57:59.450Z,14.63
2023-07-25T04:00:26.135Z,14.35
2023-07-25T04:03:04.963Z,14.68
2023-07-25T04:05:36.161Z,15.13
2023-07-25T04:08:02.839Z,14.27
2023-07-25T04:10:29.655Z,10.50
2023-07-25T04:12:56.309Z,8.80
2023-07-25T04:15:22.971Z,13.70
2023-07-25T04:17:49.658Z,11.43
2023-07-25T04:20:16.404Z,9.93
2023-07-25T04:22:43.032Z,11.95
2023-07-25T04:25:09.713Z,8.73
2023-07-25T04:27:36.381Z,11.75
2023-07-25T04:30:03.809Z,16.02
2023-07-25T04:32:31.016Z,13.05
2023-07-25T04:34:59.552Z,10.80
2023-07-25T04:37:26.483Z,9.82
2023-07-25T04:39:53.185Z,12.55
2023-07-25T04:42:19.856Z,7.80
2023-07-25T04:44:46.484Z,11.52
2023-07-25T04:47:13.149Z,11.90
2023-07-25T04:49:39.845Z,7.47
2023-07-25T04:52:06.896Z,11.90
2023-07-25T04:54:33.526Z,7.45
2023-07-25T04:57:00.155Z,8.40
2023-07-25T04:59:27.893Z,8.75
2023-07-25T05:01:54.572Z,9.73
2023-07-25T05:04:21.256Z,8.63
2023-07-25T05:06:48.046Z,5.30
2023-07-25T05:09:15.925Z,9.20
2023-07-25T05:11:42.657Z,8.07
2023-07-25T05:14:09.299Z,7.30
2023-07-25T05:16:35.933Z,10.70
2023-07-25T05:19:02.591Z,10.40
2023-07-25T05:21:29.402Z,9.38
2023-07-25T05:23:56.411Z,7.72
2023-07-25T05:26:23.098Z,11.18
2023-07-25T05:28:49.804Z,13.43
2023-07-25T05:31:16.504Z,11.05
2023-07-25T05:33:43.187Z,12.55
2023-07-25T05:36:09.853Z,8.35
2023-07-25T05:38:36.486Z,9.82
2023-07-25T05:41:03.898Z,8.38
2023-07-25T05:43:30.523Z,9.90
2023-07-25T05:45:57.200Z,11.27
2023-07-25T05:48:24.203Z,10.25
2023-07-25T05:50:52.589Z,10.05
2023-07-25T05:53:19.986Z,11.20
2023-07-25T05:55:47.411Z,9.25
2023-07-25T05:58:17.851Z,9.63
2023-07-25T06:00:45.520Z,8.07
2023-07-25T06:03:13.771Z,9.55
2023-07-25T06:05:41.339Z,7.80
2023-07-25T06:08:08.442Z,12.45
2023-07-25T06:10:36.565Z,8.73
2023-07-25T06:13:07.799Z,5.50
2023-07-25T06:15:38.130Z,10.57
2023-07-25T06:20:35.354Z,8.90
2023-07-25T06:25:29.301Z,5.90
2023-07-25T06:27:56.005Z,9.63
2023-07-25T06:30:22.687Z,9.38
2023-07-25T06:32:50.421Z,9.25
2023-07-25T06:35:19.030Z,10.55
2023-07-25T06:37:45.661Z,7.57
2023-07-25T06:40:12.684Z,8.38
2023-07-25T06:42:39.319Z,8.10
2023-07-25T06:45:06.605Z,6.03
2023-07-25T06:47:33.315Z,7.85
2023-07-25T06:50:00.888Z,8.27
2023-07-25T06:52:27.657Z,9.77
2023-07-25T06:54:54.320Z,9.43
2023-07-25T06:57:20.982Z,7.20
2023-07-25T06:59:49.600Z,9.02
2023-07-25T07:02:16.652Z,7.45
2023-07-25T07:04:43.354Z,7.40
2023-07-25T07:07:09.965Z,5.35
2023-07-25T07:09:36.640Z,6.60
2023-07-25T07:12:03.560Z,8.85
2023-07-25T07:14:30.221Z,4.55
2023-07-25T07:16:57.038Z,5.53
2023-07-25T07:19:23.859Z,6.13
2023-07-25T07:21:50.554Z,3.67
2023-07-25T07:24:17.423Z,3.75
2023-07-25T07:26:44.112Z,7.22
2023-07-25T07:29:12.821Z,8.07
2023-07-25T07:31:39.519Z,8.98
2023-07-25T07:34:16.838Z,4.93
2023-07-25T07:36:44.340Z,4.35
2023-07-25T07:39:11.902Z,5.75
2023-07-25T07:41:38.593Z,4.10
2023-07-25T07:44:05.523Z,4.43
2023-07-25T07:46:33.841Z,6.15
2023-07-25T07:49:01.420Z,10.73
2023-07-25T07:51:28.401Z,9.73
2023-07-25T07:53:55.058Z,4.85
2023-07-25T07:56:21.799Z,5.40
2023-07-25T07:58:48.477Z,8.82
2023-07-25T08:01:21.031Z,6.45
2023-07-25T08:03:48.433Z,6.45
2023-07-25T08:06:15.321Z,5.97
2023-07-25T08:08:42.528Z,7.18
2023-07-25T08:11:09.446Z,6.82
2023-07-25T08:13:36.166Z,5.32
2023-07-25T08:16:02.890Z,9.10
2023-07-25T08:18:29.577Z,4.53
2023-07-25T08:20:58.052Z,6.20
2023-07-25T08:23:25.901Z,4.35
2023-07-25T08:25:55.444Z,7.40
2023-07-25T08:28:22.235Z,5.97
2023-07-25T08:30:49.121Z,7.10
2023-07-25T08:33:20.897Z,11.48
2023-07-25T08:35:48.642Z,8.25
2023-07-25T08:38:15.401Z,8.57
2023-07-25T08:40:43.058Z,5.78
2023-07-25T08:43:12.151Z,6.53
2023-07-25T08:45:41.259Z,9.18
2023-07-25T08:48:13.009Z,5.85
2023-07-25T08:50:43.246Z,6.68
2023-07-25T08:55:38.876Z,4.78
2023-07-25T08:58:05.898Z,5.13
2023-07-25T09:00:32.854Z,6.80
2023-07-25T09:03:00.135Z,7.68
2023-07-25T09:05:30.461Z,7.85
2023-07-25T09:08:00.334Z,5.50
2023-07-25T09:10:30.293Z,8.50
2023-07-25T09:12:57.042Z,5.65
2023-07-25T09:15:24.391Z,6.20
2023-07-25T09:17:54.547Z,4.18
2023-07-25T09:22:51.645Z,3.67
2023-07-25T09:25:18.344Z,6.85
2023-07-25T09:27:47.127Z,5.45
2023-07-25T09:30:15.457Z,6.30
2023-07-25T09:32:51.216Z,3.80
2023-07-25T09:35:17.923Z,5.15
2023-07-25T09:37:52.801Z,7.90
2023-07-25T09:40:19.681Z,4.68
2023-07-25T09:42:47.432Z,5.57
2023-07-25T09:45:14.115Z,2.63
2023-07-25T09:47:40.846Z,6.35
2023-07-25T09:50:08.462Z,5.30
2023-07-25T09:52:43.546Z,8.25
2023-07-25T09:55:10.459Z,6.18
2023-07-25T09:57:37.224Z,3.63
2023-07-25T10:00:07.201Z,2.28
2023-07-25T10:02:34.879Z,9.02
2023-07-25T10:05:02.780Z,5.05
2023-07-25T10:07:33.373Z,5.88
2023-07-25T10:10:00.642Z,3.78
2023-07-25T10:12:27.314Z,3.63
2023-07-25T10:14:56.332Z,3.65
2023-07-25T10:17:26.584Z,4.68
2023-07-25T10:25:39.296Z,4.93
2023-07-25T10:28:05.983Z,3.78
2023-07-25T10:30:40.546Z,5.60
2023-07-25T10:33:08.862Z,3.42
2023-07-25T10:35:50.681Z,4.05
2023-07-25T10:38:34.705Z,3.28
2023-07-25T10:41:17.594Z,5.45
2023-07-25T10:43:50.611Z,5.78
2023-07-25T10:46:20.218Z,6.22
2023-07-25T10:48:51.793Z,4.55
2023-07-25T10:51:20.317Z,4.90
2023-07-25T10:54:08.660Z,5.68
2023-07-25T10:56:36.002Z,6.78
2023-07-25T10:59:11.671Z,7.85
2023-07-25T11:01:49.278Z,2.20
2023-07-25T11:04:27.435Z,3.20
2023-07-25T11:06:59.286Z,3.40
2023-07-25T11:09:27.364Z,5.80
2023-07-25T11:11:55.377Z,3.67
2023-07-25T11:14:23.154Z,6.95
2023-07-25T11:16:51.704Z,4.95
2023-07-25T11:19:20.058Z,5.93
2023-07-25T11:21:47.263Z,4.38
2023-07-25T11:24:14.079Z,4.00
2023-07-25T11:26:41.288Z,11.18
2023-07-25T11:29:11.141Z,10.02
2023-07-25T11:31:42.957Z,7.93
2023-07-25T11:34:11.835Z,27.33
2023-07-25T11:36:40.535Z,9.70
2023-07-25T11:39:08.633Z,5.07
2023-07-25T11:41:39.371Z,6.82
2023-07-25T11:44:13.974Z,4.53
2023-07-25T11:46:47.911Z,3.90
2023-07-25T11:49:20.275Z,5.53
2023-07-25T11:51:53.219Z,5.28
2023-07-25T11:54:20.559Z,3.50
2023-07-25T11:56:47.326Z,4.78
2023-07-25T11:59:14.195Z,8.90
2023-07-25T12:01:40.906Z,4.45
2023-07-25T12:04:18.645Z,6.25
2023-07-25T12:06:45.437Z,4.00
2023-07-25T12:09:12.114Z,3.42
2023-07-25T12:11:45.190Z,5.00
2023-07-25T12:14:13.313Z,3.35
2023-07-25T12:16:44.858Z,5.18
2023-07-25T12:19:13.866Z,6.90
2023-07-25T12:21:42.216Z,3.83
2023-07-25T12:24:10.823Z,4.72
2023-07-25T12:26:57.569Z,4.70
2023-07-25T12:29:27.968Z,3.47
2023-07-25T12:31:55.660Z,3.53
2023-07-25T12:34:22.684Z,5.65
2023-07-25T12:36:50.761Z,3.47
2023-07-25T12:39:17.941Z,6.57
2023-07-25T12:41:46.158Z,2.40
2023-07-25T12:44:13.420Z,4.95
2023-07-25T12:46:40.765Z,2.50
2023-07-25T12:49:08.691Z,3.70
2023-07-25T12:51:35.964Z,4.57
2023-07-25T12:54:03.153Z,6.95
2023-07-25T12:56:30.140Z,3.17
2023-07-25T12:58:57.548Z,3.25
2023-07-25T13:01:25.018Z,2.50
2023-07-25T13:03:51.892Z,3.55
2023-07-25T13:06:18.719Z,2.58
2023-07-25T13:08:45.364Z,3.90
2023-07-25T13:11:12.757Z,3.85
2023-07-25T13:13:39.502Z,4.90
2023-07-25T13:16:07.634Z,2.92
2023-07-25T13:18:34.667Z,4.78
2023-07-25T13:21:01.957Z,5.38
2023-07-25T13:23:28.615Z,2.63
2023-07-25T13:25:55.250Z,2.45
2023-07-25T13:28:21.898Z,3.22
2023-07-25T13:30:49.068Z,2.58
2023-07-25T13:33:15.847Z,5.15
2023-07-25T13:35:42.590Z,2.97
2023-07-25T13:38:09.267Z,2.90
2023-07-25T13:40:35.963Z,2.28
2023-07-25T13:43:02.830Z,4.30
2023-07-25T13:45:45.568Z,2.58
2023-07-25T13:48:16.156Z,3.45
2023-07-25T13:50:52.674Z,3.40
2023-07-25T13:53:21.533Z,3.75
2023-07-25T13:55:48.219Z,3.63
2023-07-25T13:58:23.578Z,2.38
2023-07-25T14:00:51.332Z,4.15
2023-07-25T14:03:17.994Z,3.03
2023-07-25T14:05:44.690Z,2.33
2023-07-25T14:08:11.603Z,2.28
2023-07-25T14:10:38.460Z,5.68
2023-07-25T14:13:05.639Z,4.38
2023-07-25T14:15:33.268Z,3.45
2023-07-25T14:18:01.417Z,4.85
2023-07-25T14:20:29.026Z,4.25
2023-07-25T14:22:55.817Z,2.95
2023-07-25T14:25:23.170Z,2.95
2023-07-25T14:27:50.255Z,4.78
2023-07-25T14:30:17.137Z,2.38
2023-07-25T14:32:44.005Z,5.38
2023-07-25T14:35:10.722Z,3.85
2023-07-25T14:37:53.411Z,4.82
2023-07-25T14:40:22.526Z,3.25
2023-07-25T14:42:49.184Z,4.55
2023-07-25T14:45:16.051Z,4.35
2023-07-25T14:47:42.870Z,2.50
2023-07-25T14:50:10.179Z,2.88
2023-07-25T14:52:36.994Z,2.50
2023-07-25T14:55:03.908Z,4.30
2023-07-25T14:57:31.622Z,6.30
2023-07-25T14:59:58.422Z,4.93
2023-07-25T15:02:25.186Z,5.38
2023-07-25T15:04:52.018Z,2.97
2023-07-25T15:07:18.779Z,3.03
2023-07-25T15:09:45.467Z,3.55
2023-07-25T15:12:12.242Z,3.13
2023-07-25T15:14:39.258Z,8.15
2023-07-25T15:17:06.191Z,7.40
2023-07-25T15:19:33.541Z,3.88
2023-07-25T15:22:00.235Z,5.82
2023-07-25T15:24:26.986Z,7.63
2023-07-25T15:26:53.736Z,4.53
2023-07-25T15:29:20.403Z,5.28
2023-07-25T15:31:48.518Z,2.35
2023-07-25T15:34:15.373Z,4.10
2023-07-25T15:36:44.088Z,3.30
2023-07-25T15:39:12.287Z,4.88
2023-07-25T15:41:39.018Z,4.45
2023-07-25T15:44:05.759Z,4.70
2023-07-25T15:46:32.460Z,3.45
2023-07-25T15:48:59.265Z,3.47
2023-07-25T15:51:25.925Z,3.97
2023-07-25T15:53:52.613Z,3.95
2023-07-25T15:56:19.381Z,3.75
2023-07-25T15:58:47.983Z,5.10
2023-07-25T16:01:14.863Z,4.00
2023-07-25T16:03:46.444Z,3.95
2023-07-25T16:06:13.493Z,5.78
2023-07-25T16:08:40.214Z,4.05
2023-07-25T16:11:06.895Z,2.55
2023-07-25T16:13:40.562Z,7.07
2023-07-25T16:16:07.501Z,2.95
2023-07-25T16:18:34.355Z,5.15
2023-07-25T16:21:01.083Z,2.22
2023-07-25T16:23:28.137Z,5.35
2023-07-25T16:25:57.633Z,3.58
2023-07-25T16:28:24.532Z,3.83
2023-07-25T16:30:55.862Z,4.88
2023-07-25T16:33:33.719Z,4.70
2023-07-25T16:36:00.395Z,4.28
2023-07-25T16:38:28.683Z,2.97
2023-07-25T16:40:55.414Z,3.03
2023-07-25T16:43:22.045Z,4.38
2023-07-25T16:45:48.692Z,5.05
2023-07-25T16:48:15.340Z,3.92
2023-07-25T16:50:41.960Z,3.00
2023-07-25T16:53:08.621Z,4.85
2023-07-25T16:55:35.283Z,4.20
2023-07-25T16:58:03.279Z,3.03
2023-07-25T17:00:30.306Z,2.30
2023-07-25T17:02:57.251Z,4.07
2023-07-25T17:05:23.956Z,3.30
2023-07-25T17:07:50.653Z,3.65
2023-07-25T17:10:17.414Z,5.70
2023-07-25T17:12:44.130Z,4.85
2023-07-25T17:15:10.892Z,4.43
2023-07-25T17:17:37.617Z,3.92
2023-07-25T17:20:05.553Z,3.55
2023-07-25T17:22:32.292Z,3.45
2023-07-25T17:24:59.047Z,4.25
2023-07-25T17:27:25.720Z,3.33
2023-07-25T17:29:52.342Z,4.32
2023-07-25T17:32:21.619Z,3.55
2023-07-25T17:34:48.377Z,5.00
2023-07-25T17:37:15.271Z,3.50
2023-07-25T17:39:41.942Z,6.95
2023-07-25T17:42:08.567Z,5.88
2023-07-25T17:44:35.392Z,3.80
2023-07-25T17:47:02.716Z,3.47
2023-07-25T17:49:29.368Z,2.08
2023-07-25T17:51:56.096Z,5.65
2023-07-25T17:54:22.766Z,3.30
2023-07-25T17:56:49.465Z,4.25
2023-07-25T17:59:16.192Z,4.90
2023-07-25T18:01:42.890Z,4.32
2023-07-25T18:04:09.578Z,4.20
2023-07-25T18:06:36.290Z,2.50
2023-07-25T18:09:02.974Z,3.85
2023-07-25T18:11:29.806Z,3.78
2023-07-25T18:13:56.665Z,4.97
2023-07-25T18:16:23.378Z,6.35
2023-07-25T18:18:50.043Z,2.78
2023-07-25T18:21:16.727Z,4.70
2023-07-25T18:23:43.364Z,1.77
2023-07-25T18:26:10.307Z,4.70
2023-07-25T18:28:37.243Z,7.40
2023-07-25T18:31:04.162Z,4.38
2023-07-25T18:33:31.527Z,4.88
2023-07-25T18:35:58.193Z,5.22
2023-07-25T18:38:24.874Z,6.63
2023-07-25T18:40:51.509Z,8.70
2023-07-25T18:43:20.339Z,6.07
2023-07-25T18:45:47.870Z,3.35
2023-07-25T18:48:14.720Z,5.47
2023-07-25T18:50:43.542Z,6.22
2023-07-25T18:53:10.499Z,4.97
2023-07-25T18:55:37.223Z,4.38
2023-07-25T18:58:03.869Z,6.63
2023-07-25T19:00:30.575Z,6.00
2023-07-25T19:02:57.238Z,3.72
2023-07-25T19:05:23.949Z,4.75
2023-07-25T19:07:50.675Z,6.88
2023-07-25T19:10:19.041Z,5.60
2023-07-25T19:12:45.870Z,10.60
2023-07-25T19:15:12.531Z,6.30
2023-07-25T19:17:39.466Z,5.07
2023-07-25T19:20:07.036Z,7.88
2023-07-25T19:22:35.526Z,6.40
2023-07-25T19:25:02.374Z,5.25
2023-07-25T19:27:29.101Z,8.45
2023-07-25T19:29:55.743Z,5.05
2023-07-25T19:32:23.776Z,6.80
2023-07-25T19:34:50.515Z,4.28
2023-07-25T19:37:17.209Z,5.07
2023-07-25T19:39:43.873Z,7.97
2023-07-25T19:42:10.548Z,3.97
2023-07-25T19:44:37.579Z,5.18
2023-07-25T19:47:06.102Z,3.65
2023-07-25T19:49:33.013Z,7.80
2023-07-25T19:51:59.743Z,5.60
2023-07-25T19:54:26.462Z,6.18
2023-07-25T19:56:53.159Z,6.63
2023-07-25T19:59:19.823Z,3.60
2023-07-25T20:01:46.533Z,4.82
2023-07-25T20:04:13.224Z,3.92
2023-07-25T20:06:39.857Z,5.38
2023-07-25T20:09:06.604Z,2.88
2023-07-25T20:11:33.309Z,6.95
2023-07-25T20:14:00.010Z,3.97
2023-07-25T20:16:26.731Z,3.75
2023-07-25T20:18:53.383Z,4.68
2023-07-25T20:21:21.978Z,5.40
2023-07-25T20:23:48.666Z,3.95
2023-07-25T20:26:15.532Z,8.02
2023-07-25T20:28:42.200Z,2.97
2023-07-25T20:31:09.026Z,6.88
2023-07-25T20:33:35.802Z,3.78
2023-07-25T20:36:03.367Z,4.35
2023-07-25T20:38:30.136Z,4.55
2023-07-25T20:40:56.839Z,5.50
2023-07-25T20:43:23.523Z,8.30
2023-07-25T20:45:50.177Z,4.28
2023-07-25T20:48:17.012Z,4.97
2023-07-25T20:50:43.663Z,6.38
2023-07-25T20:53:10.341Z,2.53
2023-07-25T20:55:37.043Z,3.28
2023-07-25T20:58:03.720Z,6.63
2023-07-25T21:00:30.354Z,3.65
2023-07-25T21:02:57.151Z,1.50
2023-07-25T21:05:24.014Z,4.13
2023-07-25T21:07:50.789Z,6.47
2023-07-25T21:10:17.524Z,3.92
2023-07-25T21:12:44.156Z,3.90
2023-07-25T21:15:11.965Z,5.55
2023-07-25T21:17:38.635Z,4.45
2023-07-25T21:20:05.928Z,3.83
2023-07-25T21:22:32.635Z,4.85
2023-07-25T21:24:59.849Z,3.88
2023-07-25T21:27:26.609Z,4.00
2023-07-25T21:29:53.285Z,5.07
2023-07-25T21:32:19.966Z,3.38
2023-07-25T21:34:46.622Z,6.18
2023-07-25T21:37:13.405Z,4.20
2023-07-25T21:39:40.052Z,5.75
2023-07-25T21:42:07.010Z,3.33
2023-07-25T21:44:33.875Z,4.65
2023-07-25T21:47:00.574Z,5.43
2023-07-25T21:49:27.257Z,2.50
2023-07-25T21:51:53.917Z,3.55
2023-07-25T21:54:20.593Z,3.35
2023-07-25T21:56:48.901Z,4.10
2023-07-25T22:01:44.291Z,1.90
2023-07-25T22:04:11.017Z,4.40
2023-07-25T22:06:38.547Z,4.18
2023-07-25T22:09:05.183Z,3.85
2023-07-25T22:11:31.965Z,6.20
2023-07-25T22:13:58.683Z,5.00
2023-07-25T22:16:25.376Z,3.75
2023-07-25T22:18:52.087Z,8.95
2023-07-25T22:21:20.030Z,5.65
2023-07-25T22:23:46.822Z,6.05
2023-07-25T22:26:13.510Z,3.20
2023-07-25T22:28:40.181Z,3.13
2023-07-25T22:31:07.133Z,5.43
2023-07-25T22:33:33.815Z,3.35
2023-07-25T22:36:00.525Z,5.60
2023-07-25T22:38:27.257Z,7.28
2023-07-25T22:40:53.903Z,6.28
2023-07-25T22:43:20.583Z,6.53
2023-07-25T22:45:47.288Z,4.38
2023-07-25T22:48:14.032Z,3.75
2023-07-25T22:50:40.662Z,6.03
2023-07-25T22:53:07.305Z,4.05
2023-07-25T22:55:34.463Z,4.88
2023-07-25T22:58:01.347Z,3.95
2023-07-25T23:00:28.013Z,5.22
2023-07-25T23:02:54.810Z,6.72
2023-07-25T23:05:21.545Z,4.72
2023-07-25T23:07:48.277Z,5.07
2023-07-25T23:10:15.936Z,5.00
2023-07-25T23:12:42.718Z,8.75
2023-07-25T23:15:11.289Z,5.05
2023-07-25T23:17:38.288Z,4.38
2023-07-25T23:20:05.430Z,7.40
2023-07-25T23:22:32.468Z,8.68
2023-07-25T23:24:59.507Z,4.20
2023-07-25T23:27:26.339Z,8.32
2023-07-25T23:29:53.099Z,5.90
2023-07-25T23:32:19.796Z,4.15
2023-07-25T23:34:49.074Z,6.38
2023-07-25T23:37:16.762Z,6.60
2023-07-25T23:39:44.417Z,2.65
2023-07-25T23:42:11.144Z,6.15
2023-07-25T23:44:37.925Z,5.00
2023-07-25T23:47:07.728Z,8.20
2023-07-25T23:49:34.774Z,5.85
2023-07-25T23:52:01.645Z,6.55
2023-07-25T23:54:28.321Z,4.22
2023-07-25T23:56:55.050Z,7.05
2023-07-25T23:59:21.722Z,5.60
